sensor_id;sensor_type;location;lat;lon;timestamp;P1;durP1;ratioP1;P2;durP2;ratioP2
43413;SDS011;29013;49.676;8.606;2023-03-30T00:00:55;4.16;;;1.63;;
43413;SDS011;29013;49.676;8.606;2023-03-30T00:06:19;4.38;;;1.75;;
43413;SDS011;29013;49.676;8.606;2023-03-30T00:11:42;4.31;;;1.37;;
43413;SDS011;29013;49.676;8.606;2023-03-30T00:17:08;4.17;;;1.58;;
43413;SDS011;29013;49.676;8.606;2023-03-30T00:22:33;4.17;;;1.19;;
43413;SDS011;29013;49.676;8.606;2023-03-30T00:27:59;2.73;;;1.0;;
43413;SDS011;29013;49.676;8.606;2023-03-30T00:33:48;4.47;;;1.42;;
43413;SDS011;29013;49.676;8.606;2023-03-30T00:39:12;3.28;;;1.0;;
43413;SDS011;29013;49.676;8.606;2023-03-30T00:50:28;5.23;;;1.25;;
43413;SDS011;29013;49.676;8.606;2023-03-30T00:55:48;3.79;;;1.25;;
43413;SDS011;29013;49.676;8.606;2023-03-30T01:01:09;3.02;;;1.52;;
43413;SDS011;29013;49.676;8.606;2023-03-30T01:06:31;4.88;;;1.15;;
43413;SDS011;29013;49.676;8.606;2023-03-30T01:11:50;4.54;;;1.53;;
43413;SDS011;29013;49.676;8.606;2023-03-30T01:17:15;3.39;;;1.15;;
43413;SDS011;29013;49.676;8.606;2023-03-30T01:22:40;3.82;;;1.48;;
43413;SDS011;29013;49.676;8.606;2023-03-30T01:28:26;3.3;;;1.39;;
43413;SDS011;29013;49.676;8.606;2023-03-30T01:34:12;4.11;;;1.3;;
43413;SDS011;29013;49.676;8.606;2023-03-30T01:39:43;5.09;;;1.39;;
43413;SDS011;29013;49.676;8.606;2023-03-30T01:45:10;4.66;;;1.43;;
43413;SDS011;29013;49.676;8.606;2023-03-30T01:50:33;3.2;;;1.16;;
43413;SDS011;29013;49.676;8.606;2023-03-30T01:55:56;4.73;;;1.41;;
43413;SDS011;29013;49.676;8.606;2023-03-30T02:01:17;4.69;;;1.29;;
43413;SDS011;29013;49.676;8.606;2023-03-30T02:06:41;3.73;;;1.5;;
43413;SDS011;29013;49.676;8.606;2023-03-30T02:12:05;4.04;;;1.37;;
43413;SDS011;29013;49.676;8.606;2023-03-30T02:17:25;2.73;;;1.39;;
43413;SDS011;29013;49.676;8.606;2023-03-30T02:23:10;4.23;;;1.58;;
43413;SDS011;29013;49.676;8.606;2023-03-30T02:28:30;5.68;;;1.2;;
43413;SDS011;29013;49.676;8.606;2023-03-30T02:39:33;4.65;;;1.14;;
43413;SDS011;29013;49.676;8.606;2023-03-30T02:45:23;5.95;;;1.65;;
43413;SDS011;29013;49.676;8.606;2023-03-30T02:50:49;2.86;;;1.19;;
43413;SDS011;29013;49.676;8.606;2023-03-30T02:56:14;6.24;;;1.27;;
43413;SDS011;29013;49.676;8.606;2023-03-30T03:01:35;4.89;;;1.36;;
43413;SDS011;29013;49.676;8.606;2023-03-30T03:07:00;5.47;;;1.73;;
43413;SDS011;29013;49.676;8.606;2023-03-30T03:12:25;2.14;;;1.19;;
43413;SDS011;29013;49.676;8.606;2023-03-30T03:17:50;6.0;;;1.41;;
43413;SDS011;29013;49.676;8.606;2023-03-30T03:23:15;6.45;;;1.52;;
43413;SDS011;29013;49.676;8.606;2023-03-30T03:29:41;6.61;;;1.72;;
43413;SDS011;29013;49.676;8.606;2023-03-30T03:35:05;4.9;;;1.55;;
43413;SDS011;29013;49.676;8.606;2023-03-30T03:40:29;3.43;;;1.3;;
43413;SDS011;29013;49.676;8.606;2023-03-30T03:45:55;5.6;;;1.59;;
43413;SDS011;29013;49.676;8.606;2023-03-30T03:51:20;3.49;;;1.33;;
43413;SDS011;29013;49.676;8.606;2023-03-30T03:56:38;3.06;;;1.3;;
43413;SDS011;29013;49.676;8.606;2023-03-30T04:02:01;5.92;;;1.5;;
43413;SDS011;29013;49.676;8.606;2023-03-30T04:07:26;7.52;;;1.81;;
43413;SDS011;29013;49.676;8.606;2023-03-30T04:13:08;6.0;;;1.71;;
43413;SDS011;29013;49.676;8.606;2023-03-30T04:18:32;7.03;;;1.38;;
43413;SDS011;29013;49.676;8.606;2023-03-30T04:23:53;6.78;;;1.56;;
43413;SDS011;29013;49.676;8.606;2023-03-30T04:29:19;4.51;;;1.48;;
43413;SDS011;29013;49.676;8.606;2023-03-30T04:34:46;3.18;;;1.33;;
43413;SDS011;29013;49.676;8.606;2023-03-30T04:40:32;7.5;;;1.64;;
43413;SDS011;29013;49.676;8.606;2023-03-30T04:45:56;6.54;;;1.66;;
43413;SDS011;29013;49.676;8.606;2023-03-30T04:51:18;6.4;;;2.14;;
43413;SDS011;29013;49.676;8.606;2023-03-30T04:56:43;12.36;;;2.15;;
43413;SDS011;29013;49.676;8.606;2023-03-30T05:02:08;7.31;;;1.79;;
43413;SDS011;29013;49.676;8.606;2023-03-30T05:07:33;9.5;;;2.59;;
43413;SDS011;29013;49.676;8.606;2023-03-30T05:12:55;5.13;;;1.6;;
43413;SDS011;29013;49.676;8.606;2023-03-30T05:18:44;7.33;;;2.14;;
43413;SDS011;29013;49.676;8.606;2023-03-30T05:24:24;7.12;;;1.98;;
43413;SDS011;29013;49.676;8.606;2023-03-30T05:29:48;9.72;;;2.06;;
43413;SDS011;29013;49.676;8.606;2023-03-30T05:35:11;7.08;;;2.24;;
43413;SDS011;29013;49.676;8.606;2023-03-30T05:40:37;6.7;;;1.99;;
43413;SDS011;29013;49.676;8.606;2023-03-30T05:46:05;9.26;;;2.47;;
43413;SDS011;29013;49.676;8.606;2023-03-30T05:51:32;7.29;;;2.31;;
43413;SDS011;29013;49.676;8.606;2023-03-30T05:57:20;9.59;;;3.54;;
43413;SDS011;29013;49.676;8.606;2023-03-30T06:02:44;7.9;;;2.86;;
43413;SDS011;29013;49.676;8.606;2023-03-30T06:08:10;9.36;;;2.78;;
43413;SDS011;29013;49.676;8.606;2023-03-30T06:13:35;8.58;;;2.57;;
43413;SDS011;29013;49.676;8.606;2023-03-30T06:19:00;7.54;;;1.84;;
43413;SDS011;29013;49.676;8.606;2023-03-30T06:24:32;6.74;;;2.44;;
43413;SDS011;29013;49.676;8.606;2023-03-30T06:29:56;6.21;;;2.67;;
43413;SDS011;29013;49.676;8.606;2023-03-30T06:35:20;7.35;;;2.33;;
43413;SDS011;29013;49.676;8.606;2023-03-30T06:40:39;9.58;;;2.59;;
43413;SDS011;29013;49.676;8.606;2023-03-30T06:46:29;8.97;;;2.52;;
43413;SDS011;29013;49.676;8.606;2023-03-30T06:51:50;5.19;;;2.14;;
43413;SDS011;29013;49.676;8.606;2023-03-30T06:57:18;6.65;;;2.46;;
43413;SDS011;29013;49.676;8.606;2023-03-30T07:02:43;5.86;;;2.59;;
43413;SDS011;29013;49.676;8.606;2023-03-30T07:08:08;6.06;;;2.68;;
43413;SDS011;29013;49.676;8.606;2023-03-30T07:13:33;9.17;;;2.93;;
43413;SDS011;29013;49.676;8.606;2023-03-30T07:18:58;9.36;;;2.9;;
43413;SDS011;29013;49.676;8.606;2023-03-30T07:24:17;5.11;;;2.88;;
43413;SDS011;29013;49.676;8.606;2023-03-30T07:29:39;6.47;;;2.58;;
43413;SDS011;29013;49.676;8.606;2023-03-30T07:35:04;7.42;;;2.99;;
43413;SDS011;29013;49.676;8.606;2023-03-30T07:40:44;5.97;;;2.54;;
43413;SDS011;29013;49.676;8.606;2023-03-30T07:46:09;7.26;;;2.65;;
43413;SDS011;29013;49.676;8.606;2023-03-30T07:51:31;6.18;;;2.44;;
43413;SDS011;29013;49.676;8.606;2023-03-30T07:57:21;7.87;;;2.7;;
43413;SDS011;29013;49.676;8.606;2023-03-30T08:02:45;4.78;;;2.39;;
43413;SDS011;29013;49.676;8.606;2023-03-30T08:08:08;5.06;;;2.24;;
43413;SDS011;29013;49.676;8.606;2023-03-30T08:13:32;5.17;;;2.28;;
43413;SDS011;29013;49.676;8.606;2023-03-30T08:18:57;7.66;;;2.58;;
43413;SDS011;29013;49.676;8.606;2023-03-30T08:24:21;9.3;;;2.49;;
43413;SDS011;29013;49.676;8.606;2023-03-30T08:29:46;4.76;;;2.29;;
43413;SDS011;29013;49.676;8.606;2023-03-30T08:35:48;4.95;;;2.14;;
43413;SDS011;29013;49.676;8.606;2023-03-30T08:47:15;4.75;;;2.23;;
43413;SDS011;29013;49.676;8.606;2023-03-30T08:52:39;4.86;;;2.38;;
43413;SDS011;29013;49.676;8.606;2023-03-30T08:58:04;5.04;;;2.33;;
43413;SDS011;29013;49.676;8.606;2023-03-30T09:03:26;4.2;;;1.98;;
43413;SDS011;29013;49.676;8.606;2023-03-30T09:09:08;4.86;;;2.08;;
43413;SDS011;29013;49.676;8.606;2023-03-30T09:14:33;4.36;;;2.19;;
43413;SDS011;29013;49.676;8.606;2023-03-30T09:19:59;6.4;;;2.21;;
43413;SDS011;29013;49.676;8.606;2023-03-30T09:25:19;6.78;;;2.35;;
43413;SDS011;29013;49.676;8.606;2023-03-30T09:30:45;4.56;;;2.37;;
43413;SDS011;29013;49.676;8.606;2023-03-30T09:36:12;5.61;;;2.28;;
43413;SDS011;29013;49.676;8.606;2023-03-30T09:47:21;5.17;;;2.32;;
43413;SDS011;29013;49.676;8.606;2023-03-30T09:52:40;4.96;;;2.12;;
43413;SDS011;29013;49.676;8.606;2023-03-30T09:58:12;5.07;;;2.06;;
43413;SDS011;29013;49.676;8.606;2023-03-30T10:03:34;4.97;;;2.08;;
43413;SDS011;29013;49.676;8.606;2023-03-30T10:09:00;4.84;;;2.13;;
43413;SDS011;29013;49.676;8.606;2023-03-30T10:14:26;3.28;;;2.03;;
43413;SDS011;29013;49.676;8.606;2023-03-30T10:19:47;4.85;;;2.09;;
43413;SDS011;29013;49.676;8.606;2023-03-30T10:25:17;3.69;;;2.04;;
43413;SDS011;29013;49.676;8.606;2023-03-30T10:30:35;6.17;;;2.06;;
43413;SDS011;29013;49.676;8.606;2023-03-30T10:36:02;7.0;;;2.11;;
43413;SDS011;29013;49.676;8.606;2023-03-30T10:41:29;6.99;;;2.31;;
43413;SDS011;29013;49.676;8.606;2023-03-30T10:46:56;2.83;;;1.42;;
43413;SDS011;29013;49.676;8.606;2023-03-30T10:52:21;2.22;;;0.72;;
43413;SDS011;29013;49.676;8.606;2023-03-30T10:57:46;3.65;;;1.17;;
43413;SDS011;29013;49.676;8.606;2023-03-30T11:03:26;4.04;;;1.17;;
43413;SDS011;29013;49.676;8.606;2023-03-30T11:09:07;2.99;;;1.14;;
43413;SDS011;29013;49.676;8.606;2023-03-30T11:14:32;2.26;;;1.07;;
43413;SDS011;29013;49.676;8.606;2023-03-30T11:19:54;3.19;;;1.07;;
43413;SDS011;29013;49.676;8.606;2023-03-30T11:25:19;1.66;;;0.84;;
43413;SDS011;29013;49.676;8.606;2023-03-30T11:30:45;2.04;;;0.79;;
43413;SDS011;29013;49.676;8.606;2023-03-30T11:36:11;3.03;;;1.18;;
43413;SDS011;29013;49.676;8.606;2023-03-30T11:41:39;2.07;;;0.95;;
43413;SDS011;29013;49.676;8.606;2023-03-30T11:47:04;2.31;;;0.95;;
43413;SDS011;29013;49.676;8.606;2023-03-30T11:52:30;2.55;;;1.15;;
43413;SDS011;29013;49.676;8.606;2023-03-30T11:57:59;3.26;;;1.04;;
43413;SDS011;29013;49.676;8.606;2023-03-30T12:03:25;1.82;;;0.94;;
43413;SDS011;29013;49.676;8.606;2023-03-30T12:09:04;5.11;;;1.26;;
43413;SDS011;29013;49.676;8.606;2023-03-30T12:26:03;2.22;;;0.95;;
43413;SDS011;29013;49.676;8.606;2023-03-30T12:31:24;2.99;;;0.94;;
43413;SDS011;29013;49.676;8.606;2023-03-30T12:37:04;3.0;;;0.76;;
43413;SDS011;29013;49.676;8.606;2023-03-30T12:42:24;2.73;;;0.79;;
43413;SDS011;29013;49.676;8.606;2023-03-30T12:47:52;1.61;;;0.82;;
43413;SDS011;29013;49.676;8.606;2023-03-30T12:53:28;2.68;;;0.89;;
43413;SDS011;29013;49.676;8.606;2023-03-30T12:59:11;3.18;;;0.8;;
43413;SDS011;29013;49.676;8.606;2023-03-30T13:04:44;2.64;;;0.81;;
43413;SDS011;29013;49.676;8.606;2023-03-30T13:10:30;1.41;;;0.49;;
43413;SDS011;29013;49.676;8.606;2023-03-30T13:15:45;2.1;;;0.6;;
43413;SDS011;29013;49.676;8.606;2023-03-30T13:21:05;3.71;;;1.28;;
43413;SDS011;29013;49.676;8.606;2023-03-30T13:26:42;1.96;;;0.53;;
43413;SDS011;29013;49.676;8.606;2023-03-30T13:32:08;2.95;;;0.57;;
43413;SDS011;29013;49.676;8.606;2023-03-30T13:37:38;2.11;;;0.56;;
43413;SDS011;29013;49.676;8.606;2023-03-30T13:43:14;3.82;;;0.8;;
43413;SDS011;29013;49.676;8.606;2023-03-30T13:48:40;1.7;;;0.51;;
43413;SDS011;29013;49.676;8.606;2023-03-30T13:54:02;3.43;;;0.61;;
43413;SDS011;29013;49.676;8.606;2023-03-30T13:59:26;2.76;;;0.69;;
43413;SDS011;29013;49.676;8.606;2023-03-30T14:04:47;2.37;;;0.6;;
43413;SDS011;29013;49.676;8.606;2023-03-30T14:10:13;2.95;;;0.69;;
43413;SDS011;29013;49.676;8.606;2023-03-30T14:15:39;2.72;;;0.7;;
43413;SDS011;29013;49.676;8.606;2023-03-30T14:21:08;3.64;;;0.7;;
43413;SDS011;29013;49.676;8.606;2023-03-30T14:26:32;2.71;;;0.6;;
43413;SDS011;29013;49.676;8.606;2023-03-30T14:31:58;2.34;;;0.61;;
43413;SDS011;29013;49.676;8.606;2023-03-30T14:37:24;1.55;;;0.59;;
43413;SDS011;29013;49.676;8.606;2023-03-30T14:42:49;2.62;;;0.52;;
43413;SDS011;29013;49.676;8.606;2023-03-30T14:48:08;2.93;;;0.66;;
43413;SDS011;29013;49.676;8.606;2023-03-30T14:53:28;1.97;;;0.75;;
43413;SDS011;29013;49.676;8.606;2023-03-30T14:58:53;0.78;;;0.31;;
43413;SDS011;29013;49.676;8.606;2023-03-30T15:04:15;2.11;;;0.54;;
43413;SDS011;29013;49.676;8.606;2023-03-30T15:09:57;2.02;;;0.67;;
43413;SDS011;29013;49.676;8.606;2023-03-30T15:15:23;1.81;;;0.56;;
43413;SDS011;29013;49.676;8.606;2023-03-30T15:20:46;0.47;;;0.39;;
43413;SDS011;29013;49.676;8.606;2023-03-30T15:26:30;4.55;;;1.19;;
43413;SDS011;29013;49.676;8.606;2023-03-30T15:32:14;3.86;;;0.75;;
43413;SDS011;29013;49.676;8.606;2023-03-30T15:37:32;2.09;;;0.78;;
43413;SDS011;29013;49.676;8.606;2023-03-30T15:43:12;2.52;;;0.63;;
43413;SDS011;29013;49.676;8.606;2023-03-30T15:48:33;4.24;;;0.61;;
43413;SDS011;29013;49.676;8.606;2023-03-30T15:54:39;2.52;;;0.78;;
43413;SDS011;29013;49.676;8.606;2023-03-30T16:00:03;2.03;;;0.59;;
43413;SDS011;29013;49.676;8.606;2023-03-30T16:05:28;1.86;;;0.54;;
43413;SDS011;29013;49.676;8.606;2023-03-30T16:10:52;2.31;;;0.64;;
43413;SDS011;29013;49.676;8.606;2023-03-30T16:16:51;1.98;;;0.63;;
43413;SDS011;29013;49.676;8.606;2023-03-30T16:22:15;4.09;;;0.73;;
43413;SDS011;29013;49.676;8.606;2023-03-30T16:27:41;2.8;;;0.92;;
43413;SDS011;29013;49.676;8.606;2023-03-30T16:33:05;2.71;;;0.58;;
43413;SDS011;29013;49.676;8.606;2023-03-30T16:38:31;3.63;;;1.33;;
43413;SDS011;29013;49.676;8.606;2023-03-30T16:43:57;2.29;;;0.82;;
43413;SDS011;29013;49.676;8.606;2023-03-30T16:49:22;2.93;;;0.58;;
43413;SDS011;29013;49.676;8.606;2023-03-30T16:54:47;0.93;;;0.34;;
43413;SDS011;29013;49.676;8.606;2023-03-30T17:00:14;1.88;;;0.46;;
43413;SDS011;29013;49.676;8.606;2023-03-30T17:05:39;1.21;;;0.42;;
43413;SDS011;29013;49.676;8.606;2023-03-30T17:11:04;0.98;;;0.47;;
43413;SDS011;29013;49.676;8.606;2023-03-30T17:16:46;1.37;;;0.39;;
43413;SDS011;29013;49.676;8.606;2023-03-30T17:22:34;1.85;;;0.52;;
43413;SDS011;29013;49.676;8.606;2023-03-30T17:27:55;2.35;;;0.45;;
43413;SDS011;29013;49.676;8.606;2023-03-30T17:33:20;2.06;;;0.62;;
43413;SDS011;29013;49.676;8.606;2023-03-30T17:38:40;2.8;;;0.55;;
43413;SDS011;29013;49.676;8.606;2023-03-30T17:43:58;2.21;;;1.27;;
43413;SDS011;29013;49.676;8.606;2023-03-30T17:49:18;3.23;;;0.89;;
43413;SDS011;29013;49.676;8.606;2023-03-30T17:54:59;3.26;;;0.74;;
43413;SDS011;29013;49.676;8.606;2023-03-30T18:00:43;2.91;;;0.72;;
43413;SDS011;29013;49.676;8.606;2023-03-30T18:06:04;3.18;;;0.59;;
43413;SDS011;29013;49.676;8.606;2023-03-30T18:11:28;4.06;;;0.77;;
43413;SDS011;29013;49.676;8.606;2023-03-30T18:16:53;2.46;;;0.83;;
43413;SDS011;29013;49.676;8.606;2023-03-30T18:22:19;3.13;;;0.78;;
43413;SDS011;29013;49.676;8.606;2023-03-30T18:27:43;2.38;;;0.7;;
43413;SDS011;29013;49.676;8.606;2023-03-30T18:33:07;2.5;;;0.68;;
43413;SDS011;29013;49.676;8.606;2023-03-30T18:38:31;2.34;;;0.66;;
43413;SDS011;29013;49.676;8.606;2023-03-30T18:43:55;2.64;;;0.71;;
43413;SDS011;29013;49.676;8.606;2023-03-30T18:49:15;1.93;;;0.69;;
43413;SDS011;29013;49.676;8.606;2023-03-30T18:54:37;1.63;;;0.52;;
43413;SDS011;29013;49.676;8.606;2023-03-30T19:00:01;1.45;;;0.71;;
43413;SDS011;29013;49.676;8.606;2023-03-30T19:05:23;1.54;;;0.74;;
43413;SDS011;29013;49.676;8.606;2023-03-30T19:10:46;1.62;;;0.54;;
43413;SDS011;29013;49.676;8.606;2023-03-30T19:16:07;2.09;;;0.39;;
43413;SDS011;29013;49.676;8.606;2023-03-30T19:21:31;3.3;;;0.4;;
43413;SDS011;29013;49.676;8.606;2023-03-30T19:42:39;15.17;;;1.34;;
43413;SDS011;29013;49.676;8.606;2023-03-30T19:48:27;1.28;;;0.43;;
43413;SDS011;29013;49.676;8.606;2023-03-30T19:54:15;1.42;;;0.47;;
43413;SDS011;29013;49.676;8.606;2023-03-30T19:59:39;12.06;;;1.45;;
43413;SDS011;29013;49.676;8.606;2023-03-30T20:05:03;10.27;;;1.83;;
43413;SDS011;29013;49.676;8.606;2023-03-30T20:10:27;2.11;;;0.82;;
43413;SDS011;29013;49.676;8.606;2023-03-30T20:15:54;3.1;;;0.9;;
43413;SDS011;29013;49.676;8.606;2023-03-30T20:21:20;1.77;;;0.92;;
43413;SDS011;29013;49.676;8.606;2023-03-30T20:26:47;2.84;;;1.22;;
43413;SDS011;29013;49.676;8.606;2023-03-30T20:32:31;2.55;;;0.9;;
43413;SDS011;29013;49.676;8.606;2023-03-30T20:37:54;1.9;;;1.0;;
43413;SDS011;29013;49.676;8.606;2023-03-30T20:43:34;1.9;;;0.59;;
43413;SDS011;29013;49.676;8.606;2023-03-30T20:48:59;1.83;;;0.59;;
43413;SDS011;29013;49.676;8.606;2023-03-30T20:54:18;2.5;;;0.86;;
43413;SDS011;29013;49.676;8.606;2023-03-30T20:59:40;3.01;;;0.57;;
43413;SDS011;29013;49.676;8.606;2023-03-30T21:05:05;2.04;;;0.77;;
43413;SDS011;29013;49.676;8.606;2023-03-30T21:10:30;2.4;;;1.19;;
43413;SDS011;29013;49.676;8.606;2023-03-30T21:15:58;2.35;;;0.85;;
43413;SDS011;29013;49.676;8.606;2023-03-30T21:21:21;1.66;;;0.73;;
43413;SDS011;29013;49.676;8.606;2023-03-30T21:26:46;1.32;;;0.56;;
43413;SDS011;29013;49.676;8.606;2023-03-30T21:32:10;1.67;;;0.54;;
43413;SDS011;29013;49.676;8.606;2023-03-30T21:37:35;1.35;;;0.57;;
43413;SDS011;29013;49.676;8.606;2023-03-30T21:43:00;2.55;;;0.77;;
43413;SDS011;29013;49.676;8.606;2023-03-30T21:48:26;3.05;;;1.57;;
43413;SDS011;29013;49.676;8.606;2023-03-30T21:53:51;1.39;;;0.56;;
43413;SDS011;29013;49.676;8.606;2023-03-30T21:59:15;3.22;;;0.83;;
43413;SDS011;29013;49.676;8.606;2023-03-30T22:04:37;2.86;;;0.6;;
43413;SDS011;29013;49.676;8.606;2023-03-30T22:10:05;4.04;;;0.94;;
43413;SDS011;29013;49.676;8.606;2023-03-30T22:15:30;14.38;;;2.54;;
43413;SDS011;29013;49.676;8.606;2023-03-30T22:20:54;4.8;;;1.0;;
43413;SDS011;29013;49.676;8.606;2023-03-30T22:26:40;1.26;;;0.49;;
43413;SDS011;29013;49.676;8.606;2023-03-30T22:32:03;0.7;;;0.42;;
43413;SDS011;29013;49.676;8.606;2023-03-30T22:37:27;0.34;;;0.21;;
43413;SDS011;29013;49.676;8.606;2023-03-30T22:42:52;0.68;;;0.15;;
43413;SDS011;29013;49.676;8.606;2023-03-30T22:48:15;0.92;;;0.49;;
43413;SDS011;29013;49.676;8.606;2023-03-30T22:53:38;0.2;;;0.03;;
43413;SDS011;29013;49.676;8.606;2023-03-30T22:59:03;0.0;;;0.0;;
43413;SDS011;29013;49.676;8.606;2023-03-30T23:04:27;0.84;;;0.15;;
43413;SDS011;29013;49.676;8.606;2023-03-30T23:09:51;0.14;;;0.07;;
43413;SDS011;29013;49.676;8.606;2023-03-30T23:15:13;0.03;;;0.04;;
43413;SDS011;29013;49.676;8.606;2023-03-30T23:20:38;0.2;;;0.24;;
43413;SDS011;29013;49.676;8.606;2023-03-30T23:26:00;0.49;;;0.38;;
43413;SDS011;29013;49.676;8.606;2023-03-30T23:31:25;0.06;;;0.07;;
43413;SDS011;29013;49.676;8.606;2023-03-30T23:36:50;0.05;;;0.06;;
43413;SDS011;29013;49.676;8.606;2023-03-30T23:42:13;0.0;;;0.0;;
43413;SDS011;29013;49.676;8.606;2023-03-30T23:47:38;0.06;;;0.07;;
43413;SDS011;29013;49.676;8.606;2023-03-30T23:52:56;0.01;;;0.01;;
43413;SDS011;29013;49.676;8.606;2023-03-30T23:58:17;0.11;;;0.09;;
